createdAt,value
2022-10-08T00:04:41.371Z,23.80
2022-10-08T00:08:38.636Z,25.30
2022-10-08T00:11:19.659Z,24.20
2022-10-08T00:14:16.104Z,24.50
2022-10-08T00:16:48.300Z,24.00
2022-10-08T00:20:14.500Z,23.60
2022-10-08T00:22:53.943Z,23.70
2022-10-08T00:25:26.418Z,23.80
2022-10-08T00:28:23.619Z,24.20
2022-10-08T00:30:57.676Z,24.00
2022-10-08T00:34:32.908Z,24.60
2022-10-08T00:37:05.340Z,24.10
2022-10-08T00:40:59.541Z,25.80
2022-10-08T00:44:29.973Z,26.20
2022-10-08T00:47:02.897Z,26.00
2022-10-08T00:54:34.875Z,27.50
2022-10-08T00:57:16.861Z,26.30
2022-10-08T01:00:39.472Z,28.10
2022-10-08T01:08:15.610Z,29.00
2022-10-08T01:11:44.052Z,28.80
2022-10-08T01:19:32.340Z,30.50
2022-10-08T01:36:05.755Z,26.50
2022-10-08T02:08:42.862Z,26.20
2022-10-08T02:12:11.594Z,26.10
2022-10-08T02:24:04.911Z,24.80
2022-10-08T02:30:17.688Z,25.20
2022-10-08T02:34:01.423Z,25.50
2022-10-08T02:41:37.622Z,25.70
2022-10-08T02:48:33.698Z,26.20
2022-10-08T02:51:57.710Z,26.20
2022-10-08T02:56:20.503Z,26.10
2022-10-08T03:00:09.560Z,26.00
2022-10-08T03:07:01.185Z,28.40
2022-10-08T03:18:22.118Z,26.60
2022-10-08T03:21:01.831Z,26.60
2022-10-08T03:33:20.729Z,28.10
2022-10-08T03:36:42.588Z,28.70
2022-10-08T03:39:22.503Z,29.00
2022-10-08T03:41:56.112Z,28.50
2022-10-08T03:49:03.121Z,29.70
2022-10-08T03:51:35.737Z,27.40
2022-10-08T03:54:08.381Z,28.90
2022-10-08T03:56:52.750Z,29.00
2022-10-08T03:59:32.179Z,31.50
2022-10-08T04:02:04.458Z,29.30
2022-10-08T04:04:42.925Z,28.90
2022-10-08T04:12:08.346Z,27.40
2022-10-08T04:15:35.494Z,27.90
2022-10-08T04:18:17.553Z,26.70
2022-10-08T04:30:01.239Z,24.00
2022-10-08T04:32:34.025Z,23.40
2022-10-08T04:35:07.237Z,23.60
2022-10-08T04:37:46.040Z,22.70
2022-10-08T04:45:34.916Z,20.10
2022-10-08T04:48:10.335Z,18.30
2022-10-08T04:51:32.124Z,18.10
2022-10-08T04:54:12.678Z,19.50
2022-10-08T04:56:45.002Z,17.00
2022-10-08T04:59:17.345Z,17.90
2022-10-08T05:01:49.600Z,17.70
2022-10-08T05:04:50.386Z,17.80
2022-10-08T05:07:50.723Z,15.20
2022-10-08T05:10:55.693Z,16.10
2022-10-08T05:13:35.655Z,16.40
2022-10-08T05:29:01.450Z,16.40
2022-10-08T05:32:14.880Z,16.40
2022-10-08T05:34:54.182Z,16.10
2022-10-08T05:37:26.796Z,15.60
2022-10-08T05:40:01.608Z,16.00
2022-10-08T05:42:37.302Z,15.90
2022-10-08T05:50:02.114Z,16.80
2022-10-08T05:56:00.724Z,15.20
2022-10-08T05:58:35.184Z,16.10
2022-10-08T06:02:08.383Z,15.50
2022-10-08T06:04:41.888Z,13.60
2022-10-08T06:07:14.430Z,14.70
2022-10-08T06:14:13.754Z,14.20
2022-10-08T06:16:46.505Z,15.70
2022-10-08T06:19:25.980Z,14.20
2022-10-08T06:26:49.048Z,13.50
2022-10-08T06:29:22.467Z,14.40
2022-10-08T06:31:55.159Z,14.30
2022-10-08T06:34:27.791Z,15.00
2022-10-08T06:36:59.704Z,14.20
2022-10-08T06:39:31.924Z,13.30
2022-10-08T06:42:03.938Z,15.60
2022-10-08T06:44:40.071Z,15.80
2022-10-08T06:47:12.059Z,13.20
2022-10-08T06:49:44.015Z,13.30
2022-10-08T06:52:16.980Z,14.20
2022-10-08T06:54:49.007Z,14.20
2022-10-08T06:57:21.007Z,13.50
2022-10-08T06:59:54.556Z,14.40
2022-10-08T07:02:26.881Z,13.00
2022-10-08T07:04:58.900Z,13.30
2022-10-08T07:07:30.820Z,14.30
2022-10-08T07:10:03.774Z,13.20
2022-10-08T07:12:35.775Z,12.70
2022-10-08T07:15:09.690Z,11.90
2022-10-08T07:17:41.705Z,12.60
2022-10-08T07:20:13.958Z,12.80
2022-10-08T07:22:46.631Z,11.60
2022-10-08T07:25:20.018Z,12.70
2022-10-08T07:27:54.119Z,12.10
2022-10-08T07:30:28.110Z,11.70
2022-10-08T07:33:00.861Z,14.90
2022-10-08T07:35:32.918Z,13.40
2022-10-08T07:43:05.199Z,12.30
2022-10-08T07:45:38.954Z,11.60
2022-10-08T07:48:11.078Z,12.10
2022-10-08T07:55:36.405Z,10.90
2022-10-08T07:58:08.598Z,10.90
2022-10-08T08:00:44.089Z,10.90
2022-10-08T08:03:17.064Z,10.80
2022-10-08T08:10:42.663Z,12.10
2022-10-08T08:13:40.936Z,10.20
2022-10-08T08:16:16.233Z,11.40
2022-10-08T08:19:41.830Z,13.00
2022-10-08T08:23:05.858Z,10.20
2022-10-08T08:25:38.622Z,10.10
2022-10-08T08:28:10.714Z,9.80
2022-10-08T08:30:45.140Z,9.70
2022-10-08T08:33:17.288Z,9.60
2022-10-08T08:36:00.002Z,9.90
2022-10-08T08:38:35.064Z,9.70
2022-10-08T08:41:26.428Z,9.90
2022-10-08T08:44:02.012Z,10.50
2022-10-08T08:46:49.649Z,12.50
2022-10-08T08:49:29.687Z,12.60
2022-10-08T08:52:04.700Z,12.40
2022-10-08T08:54:37.401Z,11.20
2022-10-08T08:57:24.127Z,11.10
2022-10-08T08:59:59.056Z,11.40
2022-10-08T09:02:35.791Z,10.20
2022-10-08T09:13:42.986Z,9.40
2022-10-08T09:16:21.534Z,9.50
2022-10-08T09:18:54.783Z,9.90
2022-10-08T09:29:35.653Z,11.30
2022-10-08T09:32:31.383Z,11.70
2022-10-08T09:35:12.621Z,10.90
2022-10-08T09:42:27.368Z,12.90
2022-10-08T09:48:49.365Z,14.60
2022-10-08T09:51:22.612Z,14.40
2022-10-08T09:55:16.553Z,13.40
2022-10-08T09:58:43.399Z,13.80
2022-10-08T10:08:58.229Z,14.50
2022-10-08T10:16:45.009Z,15.60
2022-10-08T10:32:35.994Z,13.80
2022-10-08T10:40:49.160Z,12.40
2022-10-08T10:43:42.628Z,14.50
2022-10-08T10:56:07.503Z,15.30
2022-10-08T11:03:18.467Z,13.60
2022-10-08T11:06:27.841Z,15.10
2022-10-08T11:14:08.056Z,14.30
2022-10-08T11:17:33.157Z,14.10
2022-10-08T11:20:26.077Z,15.00
2022-10-08T11:26:41.377Z,13.90
2022-10-08T11:32:36.876Z,13.70
2022-10-08T11:36:04.132Z,12.90
2022-10-08T11:48:28.128Z,13.40
2022-10-08T11:56:00.661Z,13.20
2022-10-08T11:58:35.481Z,13.60
2022-10-08T12:06:32.951Z,12.60
2022-10-08T12:09:06.487Z,13.10
2022-10-08T12:25:29.577Z,13.80
2022-10-08T13:00:21.557Z,15.60
2022-10-08T13:06:44.302Z,12.60
2022-10-08T13:09:57.637Z,14.40
2022-10-08T13:17:51.103Z,16.50
2022-10-08T13:20:25.057Z,16.10
2022-10-08T13:22:57.173Z,13.00
2022-10-08T13:29:54.146Z,16.70
2022-10-08T13:32:29.539Z,10.50
2022-10-08T13:40:31.148Z,10.70
2022-10-08T13:43:03.395Z,10.30
2022-10-08T13:45:54.551Z,11.10
2022-10-08T13:48:27.260Z,11.20
2022-10-08T13:56:26.411Z,11.50
2022-10-08T13:59:46.607Z,11.20
2022-10-08T14:02:18.828Z,10.80
2022-10-08T14:05:23.964Z,10.20
2022-10-08T14:15:43.230Z,11.40
2022-10-08T14:18:15.469Z,12.80
2022-10-08T14:25:32.845Z,14.40
2022-10-08T14:28:04.985Z,13.40
2022-10-08T14:30:37.463Z,14.40
2022-10-08T14:42:04.400Z,15.10
2022-10-08T14:44:56.645Z,15.30
2022-10-08T14:47:35.038Z,19.70
2022-10-08T14:50:09.911Z,17.50
2022-10-08T14:54:18.191Z,17.90
2022-10-08T14:56:50.296Z,16.00
2022-10-08T15:00:11.375Z,16.10
2022-10-08T15:02:43.536Z,14.70
2022-10-08T15:05:15.792Z,14.80
2022-10-08T15:12:13.330Z,15.10
2022-10-08T15:14:51.919Z,13.90
2022-10-08T15:17:24.322Z,14.70
2022-10-08T15:24:21.842Z,16.20
2022-10-08T15:26:54.547Z,15.40
2022-10-08T15:29:33.126Z,17.30
2022-10-08T15:32:05.275Z,18.20
2022-10-08T15:39:49.080Z,17.40
2022-10-08T15:42:21.533Z,16.90
2022-10-08T15:44:55.291Z,17.60
2022-10-08T15:47:34.164Z,17.10
2022-10-08T15:50:07.074Z,16.90
2022-10-08T15:52:42.886Z,16.20
2022-10-08T15:55:17.736Z,39.90
2022-10-08T15:57:49.737Z,20.30
2022-10-08T16:00:22.996Z,17.30
2022-10-08T16:03:02.469Z,17.70
2022-10-08T16:05:38.336Z,18.50
2022-10-08T16:08:10.391Z,21.90
2022-10-08T16:10:42.650Z,18.70
2022-10-08T16:13:15.126Z,18.70
2022-10-08T16:15:50.377Z,19.40
2022-10-08T16:18:22.425Z,19.20
2022-10-08T16:20:54.388Z,19.20
2022-10-08T16:23:26.555Z,18.50
2022-10-08T16:25:59.883Z,21.10
2022-10-08T16:28:34.369Z,22.40
2022-10-08T16:31:07.133Z,34.20
2022-10-08T16:33:40.397Z,21.70
2022-10-08T16:36:14.508Z,21.40
2022-10-08T16:38:46.440Z,23.40
2022-10-08T16:41:20.281Z,27.80
2022-10-08T16:43:55.763Z,27.10
2022-10-08T16:46:30.088Z,24.40
2022-10-08T16:49:03.616Z,27.40
2022-10-08T16:51:37.457Z,24.50
2022-10-08T16:54:12.664Z,30.70
2022-10-08T16:56:46.335Z,26.70
2022-10-08T16:59:20.799Z,21.40
2022-10-08T17:01:55.254Z,24.10
2022-10-08T17:04:30.085Z,26.70
2022-10-08T17:07:02.476Z,25.90
2022-10-08T17:09:34.841Z,35.80
2022-10-08T17:12:06.929Z,22.70
2022-10-08T17:14:39.638Z,26.40
2022-10-08T17:17:11.684Z,21.40
2022-10-08T17:19:45.676Z,25.50
2022-10-08T17:22:17.643Z,20.20
2022-10-08T17:24:49.771Z,20.80
2022-10-08T17:27:21.870Z,21.10
2022-10-08T17:29:53.975Z,20.70
2022-10-08T17:32:29.224Z,21.80
2022-10-08T17:35:01.496Z,27.80
2022-10-08T17:37:33.595Z,25.70
2022-10-08T17:40:05.954Z,23.30
2022-10-08T17:42:37.969Z,20.00
2022-10-08T17:45:11.468Z,19.80
2022-10-08T17:47:43.491Z,20.90
2022-10-08T17:50:18.980Z,20.70
2022-10-08T17:52:51.131Z,21.20
2022-10-08T17:55:23.475Z,21.70
2022-10-08T17:57:55.497Z,27.30
2022-10-08T18:00:28.152Z,21.10
2022-10-08T18:03:00.147Z,22.70
2022-10-08T18:05:32.902Z,25.80
2022-10-08T18:08:05.102Z,29.30
2022-10-08T18:10:39.723Z,28.40
2022-10-08T18:13:11.622Z,38.00
2022-10-08T18:15:43.600Z,28.70
2022-10-08T18:18:15.987Z,51.20
2022-10-08T18:20:57.095Z,36.40
2022-10-08T18:23:30.484Z,29.40
2022-10-08T18:30:01.844Z,34.00
2022-10-08T18:36:38.694Z,29.10
2022-10-08T18:42:54.539Z,28.50
2022-10-08T18:45:26.721Z,30.20
2022-10-08T18:48:01.856Z,31.80
2022-10-08T18:51:36.186Z,35.40
2022-10-08T18:54:10.153Z,28.30
2022-10-08T18:56:42.913Z,27.50
2022-10-08T18:59:16.941Z,29.80
2022-10-08T19:01:50.354Z,32.80
2022-10-08T19:04:23.490Z,30.60
2022-10-08T19:06:55.930Z,34.20
2022-10-08T19:09:28.596Z,45.60
2022-10-08T19:12:02.842Z,38.10
2022-10-08T19:14:35.189Z,37.00
2022-10-08T19:17:07.594Z,32.60
2022-10-08T19:19:39.776Z,36.40
2022-10-08T19:22:14.221Z,34.10
2022-10-08T19:24:46.658Z,36.00
2022-10-08T19:31:54.659Z,36.50
2022-10-08T19:35:20.187Z,33.20
2022-10-08T19:37:59.351Z,36.30
2022-10-08T19:40:32.360Z,36.50
2022-10-08T19:47:07.793Z,32.10
2022-10-08T19:49:44.454Z,54.00
2022-10-08T19:52:17.149Z,34.70
2022-10-08T19:54:49.839Z,31.70
2022-10-08T20:01:46.340Z,25.50
2022-10-08T20:04:18.662Z,26.20
2022-10-08T20:17:33.935Z,27.60
2022-10-08T20:20:31.239Z,24.20
2022-10-08T20:23:52.006Z,21.00
2022-10-08T20:26:26.734Z,21.40
2022-10-08T20:30:45.187Z,33.30
2022-10-08T20:33:26.462Z,33.10
2022-10-08T20:35:58.785Z,22.20
2022-10-08T20:39:06.929Z,20.40
2022-10-08T20:41:46.505Z,21.80
2022-10-08T20:49:12.780Z,22.00
2022-10-08T20:51:45.936Z,21.60
2022-10-08T20:59:43.178Z,16.00
2022-10-08T21:02:22.684Z,18.90
2022-10-08T21:04:54.970Z,17.40
2022-10-08T21:07:43.602Z,16.60
2022-10-08T21:10:25.286Z,17.40
2022-10-08T21:18:38.282Z,14.40
2022-10-08T21:21:17.511Z,14.00
2022-10-08T21:27:57.904Z,12.20
2022-10-08T21:31:24.830Z,12.20
2022-10-08T21:38:07.511Z,11.40
2022-10-08T21:40:39.888Z,11.20
2022-10-08T21:43:18.737Z,10.10
2022-10-08T21:54:58.725Z,7.50
2022-10-08T21:57:30.742Z,8.30
2022-10-08T22:08:51.972Z,5.50
2022-10-08T22:11:30.739Z,6.20
2022-10-08T22:14:31.589Z,6.10
2022-10-08T22:17:03.613Z,6.00
2022-10-08T22:28:32.959Z,5.40
2022-10-08T22:37:03.084Z,4.70
2022-10-08T22:39:35.228Z,4.70
2022-10-08T22:42:50.002Z,5.30
2022-10-08T22:45:28.648Z,4.60
2022-10-08T22:48:00.802Z,5.10
2022-10-08T22:50:34.028Z,4.50
2022-10-08T22:53:06.339Z,4.40
2022-10-08T22:56:48.074Z,4.70
2022-10-08T22:59:26.790Z,3.80
2022-10-08T23:01:58.952Z,3.90
2022-10-08T23:04:38.137Z,4.10
2022-10-08T23:07:10.204Z,4.00
2022-10-08T23:10:29.615Z,3.90
2022-10-08T23:13:05.130Z,3.70
2022-10-08T23:17:28.641Z,3.30
2022-10-08T23:20:00.852Z,4.10
2022-10-08T23:27:23.512Z,4.60
2022-10-08T23:30:02.965Z,4.10
2022-10-08T23:32:35.674Z,3.80
2022-10-08T23:35:15.932Z,3.30
2022-10-08T23:37:48.781Z,4.20
2022-10-08T23:40:27.608Z,3.90
2022-10-08T23:43:00.053Z,4.20
2022-10-08T23:49:58.811Z,4.30
2022-10-08T23:53:15.423Z,3.50
2022-10-08T23:56:37.598Z,4.20
2022-10-08T23:59:09.950Z,4.10
